sensor_id;sensor_type;location;lat;lon;timestamp;pressure;altitude;pressure_sealevel;temperature;humidity
18813;BME280;9534;51.140;6.296;2024-03-02T00:02:40;67756.88;;;9.38;100.00
18813;BME280;9534;51.140;6.296;2024-03-02T00:06:44;67760.47;;;9.43;100.00
18813;BME280;9534;51.140;6.296;2024-03-02T00:10:47;67772.84;;;9.52;100.00
18813;BME280;9534;51.140;6.296;2024-03-02T00:14:52;67771.84;;;9.53;100.00
18813;BME280;9534;51.140;6.296;2024-03-02T00:18:55;67789.25;;;9.64;100.00
18813;BME280;9534;51.140;6.296;2024-03-02T00:23:02;67791.38;;;9.63;100.00
18813;BME280;9534;51.140;6.296;2024-03-02T00:27:06;67778.13;;;9.59;100.00
18813;BME280;9534;51.140;6.296;2024-03-02T00:31:15;67778.69;;;9.59;100.00
18813;BME280;9534;51.140;6.296;2024-03-02T00:35:18;67784.97;;;9.65;100.00
18813;BME280;9534;51.140;6.296;2024-03-02T00:39:22;67781.25;;;9.57;100.00
18813;BME280;9534;51.140;6.296;2024-03-02T00:47:49;67770.56;;;9.50;100.00
18813;BME280;9534;51.140;6.296;2024-03-02T00:51:53;67771.00;;;9.48;100.00
18813;BME280;9534;51.140;6.296;2024-03-02T00:55:56;67767.56;;;9.45;100.00
18813;BME280;9534;51.140;6.296;2024-03-02T01:00:00;67769.84;;;9.47;100.00
18813;BME280;9534;51.140;6.296;2024-03-02T01:04:04;67737.22;;;9.25;100.00
18813;BME280;9534;51.140;6.296;2024-03-02T01:08:08;67736.22;;;9.17;100.00
18813;BME280;9534;51.140;6.296;2024-03-02T01:12:11;67732.38;;;9.16;100.00
18813;BME280;9534;51.140;6.296;2024-03-02T01:16:14;67725.38;;;9.08;100.00
18813;BME280;9534;51.140;6.296;2024-03-02T01:20:19;67721.69;;;9.09;100.00
18813;BME280;9534;51.140;6.296;2024-03-02T01:24:22;67727.22;;;9.12;100.00
18813;BME280;9534;51.140;6.296;2024-03-02T01:28:25;67738.78;;;9.24;100.00
18813;BME280;9534;51.140;6.296;2024-03-02T01:32:28;67743.91;;;9.29;100.00
18813;BME280;9534;51.140;6.296;2024-03-02T01:36:32;67755.19;;;9.36;100.00
18813;BME280;9534;51.140;6.296;2024-03-02T01:40:36;67760.47;;;9.43;100.00
18813;BME280;9534;51.140;6.296;2024-03-02T01:44:39;67770.41;;;9.47;100.00
18813;BME280;9534;51.140;6.296;2024-03-02T01:48:42;67764.31;;;9.44;100.00
18813;BME280;9534;51.140;6.296;2024-03-02T01:52:47;67761.59;;;9.44;100.00
18813;BME280;9534;51.140;6.296;2024-03-02T01:56:50;67768.13;;;9.45;100.00
18813;BME280;9534;51.140;6.296;2024-03-02T02:00:53;67766.13;;;9.48;100.00
18813;BME280;9534;51.140;6.296;2024-03-02T02:04:56;67818.31;;;9.89;100.00
18813;BME280;9534;51.140;6.296;2024-03-02T02:09:00;67836.59;;;10.05;100.00
18813;BME280;9534;51.140;6.296;2024-03-02T02:13:04;67796.94;;;9.75;100.00
18813;BME280;9534;51.140;6.296;2024-03-02T02:17:07;67747.19;;;9.29;100.00
18813;BME280;9534;51.140;6.296;2024-03-02T02:21:10;67733.94;;;9.15;100.00
18813;BME280;9534;51.140;6.296;2024-03-02T02:25:14;67723.38;;;9.11;100.00
18813;BME280;9534;51.140;6.296;2024-03-02T02:29:17;67719.13;;;9.02;100.00
18813;BME280;9534;51.140;6.296;2024-03-02T02:33:20;67677.09;;;8.68;100.00
18813;BME280;9534;51.140;6.296;2024-03-02T02:37:23;67654.31;;;8.48;100.00
18813;BME280;9534;51.140;6.296;2024-03-02T02:41:28;67639.34;;;8.33;100.00
18813;BME280;9534;51.140;6.296;2024-03-02T02:45:31;67622.84;;;8.28;100.00
18813;BME280;9534;51.140;6.296;2024-03-02T02:49:35;67626.53;;;8.26;100.00
18813;BME280;9534;51.140;6.296;2024-03-02T02:53:38;67625.97;;;8.26;100.00
18813;BME280;9534;51.140;6.296;2024-03-02T02:57:43;67622.97;;;8.21;100.00
18813;BME280;9534;51.140;6.296;2024-03-02T03:01:47;67627.94;;;8.23;100.00
18813;BME280;9534;51.140;6.296;2024-03-02T03:05:50;67616.84;;;8.18;100.00
18813;BME280;9534;51.140;6.296;2024-03-02T03:09:53;67617.13;;;8.13;100.00
18813;BME280;9534;51.140;6.296;2024-03-02T03:13:58;67609.72;;;8.07;100.00
18813;BME280;9534;51.140;6.296;2024-03-02T03:18:02;67607.44;;;8.05;100.00
18813;BME280;9534;51.140;6.296;2024-03-02T03:22:05;67598.31;;;7.97;100.00
18813;BME280;9534;51.140;6.296;2024-03-02T03:26:08;67593.78;;;7.93;100.00
18813;BME280;9534;51.140;6.296;2024-03-02T03:30:13;67590.34;;;7.90;100.00
18813;BME280;9534;51.140;6.296;2024-03-02T03:34:16;67587.66;;;7.90;100.00
18813;BME280;9534;51.140;6.296;2024-03-02T03:38:19;67578.84;;;7.87;100.00
18813;BME280;9534;51.140;6.296;2024-03-02T03:42:22;67583.53;;;7.84;100.00
18813;BME280;9534;51.140;6.296;2024-03-02T03:46:26;67579.69;;;7.83;100.00
18813;BME280;9534;51.140;6.296;2024-03-02T03:50:30;67570.16;;;7.77;100.00
18813;BME280;9534;51.140;6.296;2024-03-02T03:54:34;67563.78;;;7.69;100.00
18813;BME280;9534;51.140;6.296;2024-03-02T03:58:39;67555.81;;;7.62;100.00
18813;BME280;9534;51.140;6.296;2024-03-02T04:02:43;67554.25;;;7.63;100.00
18813;BME280;9534;51.140;6.296;2024-03-02T04:06:46;67556.78;;;7.60;100.00
18813;BME280;9534;51.140;6.296;2024-03-02T04:10:49;67560.78;;;7.64;100.00
18813;BME280;9534;51.140;6.296;2024-03-02T04:14:52;67561.91;;;7.65;100.00
18813;BME280;9534;51.140;6.296;2024-03-02T04:18:56;67560.34;;;7.66;100.00
18813;BME280;9534;51.140;6.296;2024-03-02T04:23:00;67557.06;;;7.65;100.00
18813;BME280;9534;51.140;6.296;2024-03-02T04:27:03;67557.66;;;7.66;100.00
18813;BME280;9534;51.140;6.296;2024-03-02T04:31:06;67557.78;;;7.68;100.00
18813;BME280;9534;51.140;6.296;2024-03-02T04:35:10;67563.34;;;7.71;100.00
18813;BME280;9534;51.140;6.296;2024-03-02T04:39:14;67564.50;;;7.72;100.00
18813;BME280;9534;51.140;6.296;2024-03-02T04:43:17;67575.56;;;7.77;100.00
18813;BME280;9534;51.140;6.296;2024-03-02T04:47:21;67586.50;;;7.89;100.00
18813;BME280;9534;51.140;6.296;2024-03-02T04:51:25;67584.25;;;7.87;100.00
18813;BME280;9534;51.140;6.296;2024-03-02T04:55:28;67573.31;;;7.84;100.00
18813;BME280;9534;51.140;6.296;2024-03-02T05:00:05;67576.28;;;7.80;100.00
18813;BME280;9534;51.140;6.296;2024-03-02T05:04:10;67566.75;;;7.74;100.00
18813;BME280;9534;51.140;6.296;2024-03-02T05:08:15;67578.53;;;7.82;100.00
18813;BME280;9534;51.140;6.296;2024-03-02T05:12:19;67590.94;;;7.90;100.00
18813;BME280;9534;51.140;6.296;2024-03-02T05:16:49;67597.78;;;7.96;100.00
18813;BME280;9534;51.140;6.296;2024-03-02T05:20:52;67600.19;;;8.01;100.00
18813;BME280;9534;51.140;6.296;2024-03-02T05:24:56;67595.06;;;7.96;100.00
18813;BME280;9534;51.140;6.296;2024-03-02T05:29:01;67607.84;;;8.03;100.00
18813;BME280;9534;51.140;6.296;2024-03-02T05:33:04;67614.28;;;8.11;100.00
18813;BME280;9534;51.140;6.296;2024-03-02T05:37:07;67611.16;;;8.13;100.00
18813;BME280;9534;51.140;6.296;2024-03-02T05:41:12;67617.28;;;8.16;100.00
18813;BME280;9534;51.140;6.296;2024-03-02T05:45:15;67620.25;;;8.21;100.00
18813;BME280;9534;51.140;6.296;2024-03-02T05:49:20;67616.72;;;8.15;100.00
18813;BME280;9534;51.140;6.296;2024-03-02T05:53:23;67619.53;;;8.18;100.00
18813;BME280;9534;51.140;6.296;2024-03-02T05:57:27;67621.69;;;8.17;100.00
18813;BME280;9534;51.140;6.296;2024-03-02T06:01:47;67616.72;;;8.15;100.00
18813;BME280;9534;51.140;6.296;2024-03-02T06:05:52;67616.84;;;8.18;100.00
18813;BME280;9534;51.140;6.296;2024-03-02T06:09:55;67619.53;;;8.18;100.00
18813;BME280;9534;51.140;6.296;2024-03-02T06:14:00;67611.56;;;8.11;100.00
18813;BME280;9534;51.140;6.296;2024-03-02T06:18:03;67614.44;;;8.13;100.00
18813;BME280;9534;51.140;6.296;2024-03-02T06:22:08;67618.41;;;8.17;100.00
18813;BME280;9534;51.140;6.296;2024-03-02T06:26:12;67622.53;;;8.23;100.00
18813;BME280;9534;51.140;6.296;2024-03-02T06:30:16;67647.34;;;8.40;100.00
18813;BME280;9534;51.140;6.296;2024-03-02T06:34:20;67633.25;;;8.30;100.00
18813;BME280;9534;51.140;6.296;2024-03-02T06:38:24;67627.94;;;8.23;100.00
18813;BME280;9534;51.140;6.296;2024-03-02T06:42:27;67627.94;;;8.23;100.00
18813;BME280;9534;51.140;6.296;2024-03-02T06:46:36;67625.97;;;8.26;100.00
18813;BME280;9534;51.140;6.296;2024-03-02T06:50:39;67620.97;;;8.24;100.00
18813;BME280;9534;51.140;6.296;2024-03-02T06:54:42;67625.25;;;8.23;100.00
18813;BME280;9534;51.140;6.296;2024-03-02T06:58:45;67620.81;;;8.21;100.00
18813;BME280;9534;51.140;6.296;2024-03-02T07:02:50;67624.53;;;8.20;100.00
18813;BME280;9534;51.140;6.296;2024-03-02T07:06:53;67621.69;;;8.17;100.00
18813;BME280;9534;51.140;6.296;2024-03-02T07:10:56;67615.56;;;8.14;100.00
18813;BME280;9534;51.140;6.296;2024-03-02T07:14:59;67624.53;;;8.20;100.00
18813;BME280;9534;51.140;6.296;2024-03-02T07:19:32;67624.94;;;8.18;100.00
18813;BME280;9534;51.140;6.296;2024-03-02T07:23:35;67612.00;;;8.09;100.00
18813;BME280;9534;51.140;6.296;2024-03-02T07:27:38;67607.03;;;8.07;100.00
18813;BME280;9534;51.140;6.296;2024-03-02T07:31:41;67619.53;;;8.18;100.00
18813;BME280;9534;51.140;6.296;2024-03-02T07:35:45;67611.31;;;8.15;100.00
18813;BME280;9534;51.140;6.296;2024-03-02T07:39:48;67611.31;;;8.15;100.00
18813;BME280;9534;51.140;6.296;2024-03-02T07:43:52;67623.38;;;8.19;100.00
18813;BME280;9534;51.140;6.296;2024-03-02T07:47:55;67625.25;;;8.23;100.00
18813;BME280;9534;51.140;6.296;2024-03-02T07:51:59;67629.41;;;8.29;100.00
18813;BME280;9534;51.140;6.296;2024-03-02T07:56:02;67634.81;;;8.29;100.00
18813;BME280;9534;51.140;6.296;2024-03-02T08:00:06;67641.94;;;8.40;100.00
18813;BME280;9534;51.140;6.296;2024-03-02T08:04:12;67701.47;;;8.87;100.00
18813;BME280;9534;51.140;6.296;2024-03-02T08:08:17;67775.84;;;9.66;100.00
18813;BME280;9534;51.140;6.296;2024-03-02T08:12:20;67859.00;;;10.27;100.00
18813;BME280;9534;51.140;6.296;2024-03-02T08:16:25;67981.88;;;11.36;100.00
18813;BME280;9534;51.140;6.296;2024-03-02T08:20:28;67967.03;;;11.23;100.00
18813;BME280;9534;51.140;6.296;2024-03-02T08:24:32;67972.75;;;11.28;100.00
18813;BME280;9534;51.140;6.296;2024-03-02T08:28:36;68051.03;;;11.97;100.00
18813;BME280;9534;51.140;6.296;2024-03-02T08:32:39;68037.47;;;11.87;100.00
18813;BME280;9534;51.140;6.296;2024-03-02T08:36:42;68047.47;;;11.91;100.00
18813;BME280;9534;51.140;6.296;2024-03-02T08:40:46;68055.63;;;12.01;100.00
18813;BME280;9534;51.140;6.296;2024-03-02T08:44:50;67942.34;;;11.00;100.00
18813;BME280;9534;51.140;6.296;2024-03-02T08:48:53;67855.16;;;10.26;100.00
18813;BME280;9534;51.140;6.296;2024-03-02T08:52:57;67884.69;;;10.49;100.00
18813;BME280;9534;51.140;6.296;2024-03-02T08:57:01;67893.94;;;10.60;100.00
18813;BME280;9534;51.140;6.296;2024-03-02T09:01:04;67907.66;;;10.72;100.00
18813;BME280;9534;51.140;6.296;2024-03-02T09:05:09;67941.06;;;11.06;100.00
18813;BME280;9534;51.140;6.296;2024-03-02T09:09:12;67878.25;;;10.41;100.00
18813;BME280;9534;51.140;6.296;2024-03-02T09:13:17;67875.81;;;10.37;100.00
18813;BME280;9534;51.140;6.296;2024-03-02T09:17:20;67879.97;;;10.43;100.00
18813;BME280;9534;51.140;6.296;2024-03-02T09:21:23;67892.81;;;10.59;100.00
18813;BME280;9534;51.140;6.296;2024-03-02T09:25:27;67866.25;;;10.31;100.00
18813;BME280;9534;51.140;6.296;2024-03-02T09:29:32;67834.59;;;10.08;100.00
18813;BME280;9534;51.140;6.296;2024-03-02T09:33:35;67851.16;;;10.22;100.00
18813;BME280;9534;51.140;6.296;2024-03-02T09:37:38;67906.94;;;10.69;100.00
18813;BME280;9534;51.140;6.296;2024-03-02T09:41:41;67906.22;;;10.66;100.00
18813;BME280;9534;51.140;6.296;2024-03-02T09:45:45;67912.22;;;10.76;100.00
18813;BME280;9534;51.140;6.296;2024-03-02T09:49:49;67960.59;;;11.15;100.00
18813;BME280;9534;51.140;6.296;2024-03-02T09:53:52;68013.59;;;11.59;100.00
18813;BME280;9534;51.140;6.296;2024-03-02T09:58:04;68137.94;;;12.72;100.00
18813;BME280;9534;51.140;6.296;2024-03-02T10:02:10;68168.84;;;12.99;100.00
18813;BME280;9534;51.140;6.296;2024-03-02T10:06:19;68164.69;;;12.93;100.00
18813;BME280;9534;51.140;6.296;2024-03-02T10:10:22;68221.38;;;13.43;100.00
18813;BME280;9534;51.140;6.296;2024-03-02T10:14:27;68117.06;;;12.49;100.00
18813;BME280;9534;51.140;6.296;2024-03-02T10:18:32;68235.53;;;13.53;100.00
18813;BME280;9534;51.140;6.296;2024-03-02T10:22:35;68153.84;;;12.84;100.00
18813;BME280;9534;51.140;6.296;2024-03-02T10:26:38;68239.81;;;13.61;100.00
18813;BME280;9534;51.140;6.296;2024-03-02T10:30:41;68279.91;;;13.96;100.00
18813;BME280;9534;51.140;6.296;2024-03-02T10:34:45;68210.63;;;13.36;100.00
18813;BME280;9534;51.140;6.296;2024-03-02T10:38:49;68221.94;;;13.53;100.00
18813;BME280;9534;51.140;6.296;2024-03-02T10:42:56;68299.63;;;14.18;100.00
18813;BME280;9534;51.140;6.296;2024-03-02T10:47:03;68311.41;;;14.23;100.00
18813;BME280;9534;51.140;6.296;2024-03-02T10:51:07;68354.94;;;14.61;100.00
18813;BME280;9534;51.140;6.296;2024-03-02T10:55:10;68402.66;;;15.05;100.00
18813;BME280;9534;51.140;6.296;2024-03-02T10:59:16;68376.72;;;14.80;100.00
18813;BME280;9534;51.140;6.296;2024-03-02T11:03:21;68322.44;;;14.35;100.00
18813;BME280;9534;51.140;6.296;2024-03-02T11:07:26;68288.31;;;14.10;100.00
18813;BME280;9534;51.140;6.296;2024-03-02T11:11:30;68360.69;;;14.66;100.00
18813;BME280;9534;51.140;6.296;2024-03-02T11:15:36;68451.72;;;15.43;100.00
18813;BME280;9534;51.140;6.296;2024-03-02T11:19:40;68560.56;;;16.44;100.00
18813;BME280;9534;51.140;6.296;2024-03-02T11:23:45;68554.69;;;16.37;100.00
18813;BME280;9534;51.140;6.296;2024-03-02T11:28:04;68476.53;;;15.67;100.00
18813;BME280;9534;51.140;6.296;2024-03-02T11:32:13;68495.19;;;15.78;100.00
18813;BME280;9534;51.140;6.296;2024-03-02T11:36:16;68379.03;;;14.82;100.00
18813;BME280;9534;51.140;6.296;2024-03-02T11:40:22;68426.31;;;15.28;100.00
18813;BME280;9534;51.140;6.296;2024-03-02T11:44:26;68492.59;;;15.81;100.00
18813;BME280;9534;51.140;6.296;2024-03-02T11:48:29;68457.59;;;15.50;100.00
18813;BME280;9534;51.140;6.296;2024-03-02T11:52:32;68346.78;;;14.61;100.00
18813;BME280;9534;51.140;6.296;2024-03-02T11:56:37;68297.66;;;14.11;100.00
18813;BME280;9534;51.140;6.296;2024-03-02T12:00:41;68247.41;;;13.70;100.00
18813;BME280;9534;51.140;6.296;2024-03-02T12:04:45;68296.06;;;14.12;100.00
18813;BME280;9534;51.140;6.296;2024-03-02T12:08:52;68289.63;;;14.04;100.00
18813;BME280;9534;51.140;6.296;2024-03-02T12:12:57;68236.97;;;13.58;100.00
18813;BME280;9534;51.140;6.296;2024-03-02T12:17:00;68258.16;;;13.77;100.00
18813;BME280;9534;51.140;6.296;2024-03-02T12:21:04;68248.41;;;13.68;100.00
18813;BME280;9534;51.140;6.296;2024-03-02T12:25:10;68266.16;;;13.84;100.00
18813;BME280;9534;51.140;6.296;2024-03-02T12:29:14;68257.88;;;13.72;100.00
18813;BME280;9534;51.140;6.296;2024-03-02T12:33:18;68267.88;;;13.85;100.00
18813;BME280;9534;51.140;6.296;2024-03-02T12:37:22;68308.53;;;14.21;100.00
18813;BME280;9534;51.140;6.296;2024-03-02T12:41:25;68258.44;;;13.72;100.00
18813;BME280;9534;51.140;6.296;2024-03-02T12:45:31;68283.06;;;13.94;100.00
18813;BME280;9534;51.140;6.296;2024-03-02T12:49:34;68279.47;;;13.98;100.00
18813;BME280;9534;51.140;6.296;2024-03-02T12:53:37;68274.31;;;13.93;100.00
18813;BME280;9534;51.140;6.296;2024-03-02T12:57:40;68300.81;;;14.09;100.00
18813;BME280;9534;51.140;6.296;2024-03-02T13:01:51;68285.31;;;14.05;100.00
18813;BME280;9534;51.140;6.296;2024-03-02T13:05:54;68351.25;;;14.53;100.00
18813;BME280;9534;51.140;6.296;2024-03-02T13:09:58;68353.25;;;14.60;100.00
18813;BME280;9534;51.140;6.296;2024-03-02T13:14:01;68350.66;;;14.62;100.00
18813;BME280;9534;51.140;6.296;2024-03-02T13:18:06;68327.59;;;14.40;100.00
18813;BME280;9534;51.140;6.296;2024-03-02T13:22:11;68323.31;;;14.31;100.00
18813;BME280;9534;51.140;6.296;2024-03-02T13:26:14;68302.78;;;14.16;100.00
18813;BME280;9534;51.140;6.296;2024-03-02T13:30:17;68289.06;;;14.04;100.00
18813;BME280;9534;51.140;6.296;2024-03-02T13:34:21;68263.28;;;13.81;100.00
18813;BME280;9534;51.140;6.296;2024-03-02T13:38:24;68269.00;;;13.86;100.00
18813;BME280;9534;51.140;6.296;2024-03-02T13:42:27;68301.81;;;14.17;100.00
18813;BME280;9534;51.140;6.296;2024-03-02T13:46:30;68304.53;;;14.17;100.00
18813;BME280;9534;51.140;6.296;2024-03-02T13:50:35;68294.22;;;14.08;100.00
18813;BME280;9534;51.140;6.296;2024-03-02T13:54:38;68272.88;;;13.87;100.00
18813;BME280;9534;51.140;6.296;2024-03-02T13:58:42;68262.16;;;13.80;100.00
18813;BME280;9534;51.140;6.296;2024-03-02T14:02:45;68241.69;;;13.65;100.00
18813;BME280;9534;51.140;6.296;2024-03-02T14:06:49;68252.72;;;13.67;100.00
18813;BME280;9534;51.140;6.296;2024-03-02T14:10:52;68250.69;;;13.70;100.00
18813;BME280;9534;51.140;6.296;2024-03-02T14:14:57;68278.06;;;13.92;100.00
18813;BME280;9534;51.140;6.296;2024-03-02T14:19:00;68278.19;;;13.94;100.00
18813;BME280;9534;51.140;6.296;2024-03-02T14:23:07;68277.19;;;13.96;100.00
18813;BME280;9534;51.140;6.296;2024-03-02T14:27:11;68285.91;;;13.96;100.00
18813;BME280;9534;51.140;6.296;2024-03-02T14:31:33;68287.06;;;13.97;100.00
18813;BME280;9534;51.140;6.296;2024-03-02T14:35:36;68307.97;;;14.20;100.00
18813;BME280;9534;51.140;6.296;2024-03-02T14:39:40;68330.31;;;14.40;100.00
18813;BME280;9534;51.140;6.296;2024-03-02T14:43:44;68395.78;;;14.99;100.00
18813;BME280;9534;51.140;6.296;2024-03-02T14:47:47;68489.72;;;15.78;100.00
18813;BME280;9534;51.140;6.296;2024-03-02T14:51:50;68387.06;;;14.89;100.00
18813;BME280;9534;51.140;6.296;2024-03-02T14:55:55;68371.44;;;14.73;100.00
18813;BME280;9534;51.140;6.296;2024-03-02T14:59:58;68332.63;;;14.42;100.00
18813;BME280;9534;51.140;6.296;2024-03-02T15:04:01;68309.13;;;14.21;100.00
18813;BME280;9534;51.140;6.296;2024-03-02T15:08:05;68395.66;;;14.96;100.00
18813;BME280;9534;51.140;6.296;2024-03-02T15:12:09;68351.81;;;14.54;100.00
18813;BME280;9534;51.140;6.296;2024-03-02T15:16:14;68303.81;;;14.14;100.00
18813;BME280;9534;51.140;6.296;2024-03-02T15:20:17;68267.88;;;13.85;100.00
18813;BME280;9534;51.140;6.296;2024-03-02T15:24:22;68247.28;;;13.67;100.00
18813;BME280;9534;51.140;6.296;2024-03-02T15:28:26;68231.53;;;13.58;100.00
18813;BME280;9534;51.140;6.296;2024-03-02T15:32:29;68208.75;;;13.41;100.00
18813;BME280;9534;51.140;6.296;2024-03-02T15:36:32;68213.34;;;13.36;100.00
18813;BME280;9534;51.140;6.296;2024-03-02T15:40:35;68209.06;;;13.37;100.00
18813;BME280;9534;51.140;6.296;2024-03-02T15:44:39;68211.78;;;13.37;100.00
18813;BME280;9534;51.140;6.296;2024-03-02T15:48:45;68211.06;;;13.34;100.00
18813;BME280;9534;51.140;6.296;2024-03-02T15:52:48;68208.91;;;13.34;100.00
18813;BME280;9534;51.140;6.296;2024-03-02T15:56:52;68210.63;;;13.36;100.00
18813;BME280;9534;51.140;6.296;2024-03-02T16:00:56;68213.34;;;13.36;100.00
18813;BME280;9534;51.140;6.296;2024-03-02T16:05:00;68205.63;;;13.34;100.00
18813;BME280;9534;51.140;6.296;2024-03-02T16:09:03;68203.34;;;13.32;100.00
18813;BME280;9534;51.140;6.296;2024-03-02T16:13:06;68199.78;;;13.26;100.00
18813;BME280;9534;51.140;6.296;2024-03-02T16:17:11;68194.59;;;13.22;100.00
18813;BME280;9534;51.140;6.296;2024-03-02T16:21:14;68183.88;;;13.15;100.00
18813;BME280;9534;51.140;6.296;2024-03-02T16:25:17;68192.75;;;13.18;100.00
18813;BME280;9534;51.140;6.296;2024-03-02T16:29:20;68181.31;;;13.08;100.00
18813;BME280;9534;51.140;6.296;2024-03-02T16:33:24;68172.44;;;13.05;100.00
18813;BME280;9534;51.140;6.296;2024-03-02T16:37:27;68185.88;;;13.12;100.00
18813;BME280;9534;51.140;6.296;2024-03-02T16:41:30;68177.44;;;13.07;100.00
18813;BME280;9534;51.140;6.296;2024-03-02T16:45:35;68182.44;;;13.09;100.00
18813;BME280;9534;51.140;6.296;2024-03-02T16:49:39;68180.31;;;13.09;100.00
18813;BME280;9534;51.140;6.296;2024-03-02T16:53:43;68188.59;;;13.12;100.00
18813;BME280;9534;51.140;6.296;2024-03-02T16:57:46;68176.28;;;13.06;100.00
18813;BME280;9534;51.140;6.296;2024-03-02T17:01:49;68170.13;;;13.03;100.00
18813;BME280;9534;51.140;6.296;2024-03-02T17:05:54;68173.44;;;13.03;100.00
18813;BME280;9534;51.140;6.296;2024-03-02T17:09:57;68174.44;;;13.02;100.00
18813;BME280;9534;51.140;6.296;2024-03-02T17:14:01;68165.72;;;13.01;100.00
18813;BME280;9534;51.140;6.296;2024-03-02T17:18:05;68172.56;;;12.98;100.00
18813;BME280;9534;51.140;6.296;2024-03-02T17:22:09;68166.56;;;12.97;100.00
18813;BME280;9534;51.140;6.296;2024-03-02T17:26:13;68161.41;;;12.93;100.00
18813;BME280;9534;51.140;6.296;2024-03-02T17:30:16;68155.66;;;12.88;100.00
18813;BME280;9534;51.140;6.296;2024-03-02T17:34:22;68152.69;;;12.83;100.00
18813;BME280;9534;51.140;6.296;2024-03-02T17:38:27;68149.97;;;12.83;100.00
18813;BME280;9534;51.140;6.296;2024-03-02T17:42:31;68150.84;;;12.79;100.00
18813;BME280;9534;51.140;6.296;2024-03-02T17:46:34;68142.25;;;12.81;100.00
18813;BME280;9534;51.140;6.296;2024-03-02T17:50:37;68139.66;;;12.74;100.00
18813;BME280;9534;51.140;6.296;2024-03-02T17:54:42;68131.06;;;12.66;100.00
18813;BME280;9534;51.140;6.296;2024-03-02T17:58:45;68136.81;;;12.71;100.00
18813;BME280;9534;51.140;6.296;2024-03-02T18:02:48;68137.09;;;12.67;100.00
18813;BME280;9534;51.140;6.296;2024-03-02T18:06:51;68125.94;;;12.62;100.00
18813;BME280;9534;51.140;6.296;2024-03-02T18:10:56;68127.38;;;12.58;100.00
18813;BME280;9534;51.140;6.296;2024-03-02T18:14:59;68120.66;;;12.55;100.00
18813;BME280;9534;51.140;6.296;2024-03-02T18:19:03;68115.66;;;12.53;100.00
18813;BME280;9534;51.140;6.296;2024-03-02T18:23:10;68114.50;;;12.52;100.00
18813;BME280;9534;51.140;6.296;2024-03-02T18:27:15;68124.09;;;12.58;100.00
18813;BME280;9534;51.140;6.296;2024-03-02T18:31:20;68121.22;;;12.55;100.00
18813;BME280;9534;51.140;6.296;2024-03-02T18:35:23;68115.66;;;12.53;100.00
18813;BME280;9534;51.140;6.296;2024-03-02T18:39:26;68119.06;;;12.56;100.00
18813;BME280;9534;51.140;6.296;2024-03-02T18:43:32;68115.66;;;12.53;100.00
18813;BME280;9534;51.140;6.296;2024-03-02T18:47:35;68106.63;;;12.47;100.00
18813;BME280;9534;51.140;6.296;2024-03-02T18:51:40;68103.06;;;12.42;100.00
18813;BME280;9534;51.140;6.296;2024-03-02T18:55:44;68098.50;;;12.38;100.00
18813;BME280;9534;51.140;6.296;2024-03-02T18:59:48;68089.34;;;12.30;100.00
18813;BME280;9534;51.140;6.296;2024-03-02T19:03:51;68088.63;;;12.27;100.00
18813;BME280;9534;51.140;6.296;2024-03-02T19:07:55;68079.47;;;12.19;100.00
18813;BME280;9534;51.140;6.296;2024-03-02T19:11:58;68071.47;;;12.12;100.00
18813;BME280;9534;51.140;6.296;2024-03-02T19:16:02;68075.63;;;12.18;100.00
18813;BME280;9534;51.140;6.296;2024-03-02T19:20:06;68064.34;;;12.11;100.00
18813;BME280;9534;51.140;6.296;2024-03-02T19:24:12;68058.47;;;12.03;100.00
18813;BME280;9534;51.140;6.296;2024-03-02T19:28:15;68049.34;;;11.95;100.00
18813;BME280;9534;51.140;6.296;2024-03-02T19:32:20;68048.19;;;11.94;100.00
18813;BME280;9534;51.140;6.296;2024-03-02T19:36:25;68039.47;;;11.84;100.00
18813;BME280;9534;51.140;6.296;2024-03-02T19:40:29;68029.47;;;11.80;100.00
18813;BME280;9534;51.140;6.296;2024-03-02T19:44:32;68047.91;;;11.89;100.00
18813;BME280;9534;51.140;6.296;2024-03-02T19:48:37;68058.75;;;11.99;100.00
18813;BME280;9534;51.140;6.296;2024-03-02T19:52:40;68049.78;;;11.93;100.00
18813;BME280;9534;51.140;6.296;2024-03-02T19:56:43;68031.03;;;11.79;100.00
18813;BME280;9534;51.140;6.296;2024-03-02T20:06:24;68057.06;;;11.97;100.00
18813;BME280;9534;51.140;6.296;2024-03-02T20:10:27;68058.47;;;12.03;100.00
18813;BME280;9534;51.140;6.296;2024-03-02T20:14:30;68060.75;;;12.05;100.00
18813;BME280;9534;51.140;6.296;2024-03-02T20:18:35;68079.91;;;12.17;100.00
18813;BME280;9534;51.140;6.296;2024-03-02T20:22:39;68065.31;;;12.09;100.00
18813;BME280;9534;51.140;6.296;2024-03-02T20:26:42;68053.19;;;11.96;100.00
18813;BME280;9534;51.140;6.296;2024-03-02T20:30:46;68041.63;;;11.93;100.00
18813;BME280;9534;51.140;6.296;2024-03-02T20:34:49;68045.19;;;11.89;100.00
18813;BME280;9534;51.140;6.296;2024-03-02T20:38:54;68049.63;;;11.91;100.00
18813;BME280;9534;51.140;6.296;2024-03-02T20:42:58;68056.63;;;11.99;100.00
18813;BME280;9534;51.140;6.296;2024-03-02T20:47:02;68059.59;;;12.04;100.00
18813;BME280;9534;51.140;6.296;2024-03-02T20:51:05;68060.75;;;12.05;100.00
18813;BME280;9534;51.140;6.296;2024-03-02T20:55:10;68051.63;;;11.97;100.00
18813;BME280;9534;51.140;6.296;2024-03-02T20:59:13;68048.75;;;11.95;100.00
18813;BME280;9534;51.140;6.296;2024-03-02T21:03:16;68055.19;;;11.93;100.00
18813;BME280;9534;51.140;6.296;2024-03-02T21:07:19;68036.75;;;11.84;100.00
18813;BME280;9534;51.140;6.296;2024-03-02T21:11:24;68036.06;;;11.81;100.00
18813;BME280;9534;51.140;6.296;2024-03-02T21:15:27;68028.75;;;11.77;100.00
18813;BME280;9534;51.140;6.296;2024-03-02T21:19:30;68021.03;;;11.75;100.00
18813;BME280;9534;51.140;6.296;2024-03-02T21:23:33;68027.03;;;11.76;100.00
18813;BME280;9534;51.140;6.296;2024-03-02T21:27:38;68024.47;;;11.69;100.00
18813;BME280;9534;51.140;6.296;2024-03-02T21:31:41;68014.47;;;11.65;100.00
18813;BME280;9534;51.140;6.296;2024-03-02T21:35:44;68005.88;;;11.57;100.00
18813;BME280;9534;51.140;6.296;2024-03-02T21:39:47;67996.72;;;11.49;100.00
18813;BME280;9534;51.140;6.296;2024-03-02T21:43:52;67998.88;;;11.49;100.00
18813;BME280;9534;51.140;6.296;2024-03-02T21:47:55;67995.03;;;11.48;100.00
18813;BME280;9534;51.140;6.296;2024-03-02T21:51:58;67996.44;;;11.44;100.00